sensor_id;sensor_type;location;lat;lon;timestamp;P1;durP1;ratioP1;P2;durP2;ratioP2
51128;SDS011;46230;47.522;19.098;2022-07-25T00:01:52;5.57;;;4.35;;
51128;SDS011;46230;47.522;19.098;2022-07-25T00:03:52;5.20;;;4.10;;
51128;SDS011;46230;47.522;19.098;2022-07-25T00:05:53;4.40;;;4.00;;
51128;SDS011;46230;47.522;19.098;2022-07-25T00:07:53;4.53;;;4.13;;
51128;SDS011;46230;47.522;19.098;2022-07-25T00:09:53;5.75;;;4.10;;
51128;SDS011;46230;47.522;19.098;2022-07-25T00:11:54;5.80;;;4.13;;
51128;SDS011;46230;47.522;19.098;2022-07-25T00:13:54;7.43;;;3.88;;
51128;SDS011;46230;47.522;19.098;2022-07-25T00:15:55;4.38;;;3.95;;
51128;SDS011;46230;47.522;19.098;2022-07-25T00:17:55;4.65;;;3.80;;
51128;SDS011;46230;47.522;19.098;2022-07-25T00:19:56;5.28;;;4.10;;
51128;SDS011;46230;47.522;19.098;2022-07-25T00:21:56;5.50;;;4.20;;
51128;SDS011;46230;47.522;19.098;2022-07-25T00:23:56;8.73;;;4.72;;
51128;SDS011;46230;47.522;19.098;2022-07-25T00:25:57;4.43;;;4.00;;
51128;SDS011;46230;47.522;19.098;2022-07-25T00:27:57;6.38;;;4.32;;
51128;SDS011;46230;47.522;19.098;2022-07-25T00:29:58;4.95;;;4.10;;
51128;SDS011;46230;47.522;19.098;2022-07-25T00:31:58;5.43;;;4.10;;
51128;SDS011;46230;47.522;19.098;2022-07-25T00:33:59;6.35;;;3.72;;
51128;SDS011;46230;47.522;19.098;2022-07-25T00:35:59;5.78;;;3.90;;
51128;SDS011;46230;47.522;19.098;2022-07-25T00:37:59;4.45;;;3.78;;
51128;SDS011;46230;47.522;19.098;2022-07-25T00:40:00;4.88;;;4.10;;
51128;SDS011;46230;47.522;19.098;2022-07-25T00:42:00;7.88;;;4.15;;
51128;SDS011;46230;47.522;19.098;2022-07-25T00:44:01;8.98;;;3.88;;
51128;SDS011;46230;47.522;19.098;2022-07-25T00:46:01;5.45;;;3.90;;
51128;SDS011;46230;47.522;19.098;2022-07-25T00:48:02;5.78;;;3.63;;
51128;SDS011;46230;47.522;19.098;2022-07-25T00:50:02;4.55;;;3.30;;
51128;SDS011;46230;47.522;19.098;2022-07-25T00:52:04;4.88;;;3.70;;
51128;SDS011;46230;47.522;19.098;2022-07-25T00:54:04;3.30;;;3.00;;
51128;SDS011;46230;47.522;19.098;2022-07-25T00:56:05;6.25;;;3.50;;
51128;SDS011;46230;47.522;19.098;2022-07-25T00:58:06;4.65;;;3.65;;
51128;SDS011;46230;47.522;19.098;2022-07-25T01:00:08;5.47;;;3.45;;
51128;SDS011;46230;47.522;19.098;2022-07-25T01:02:10;6.10;;;3.20;;
51128;SDS011;46230;47.522;19.098;2022-07-25T01:04:11;5.25;;;3.38;;
51128;SDS011;46230;47.522;19.098;2022-07-25T01:06:11;4.72;;;3.50;;
51128;SDS011;46230;47.522;19.098;2022-07-25T01:08:12;5.07;;;3.45;;
51128;SDS011;46230;47.522;19.098;2022-07-25T01:10:12;4.18;;;3.60;;
51128;SDS011;46230;47.522;19.098;2022-07-25T01:12:13;5.15;;;3.47;;
51128;SDS011;46230;47.522;19.098;2022-07-25T01:14:13;5.55;;;3.75;;
51128;SDS011;46230;47.522;19.098;2022-07-25T01:16:13;6.85;;;3.38;;
51128;SDS011;46230;47.522;19.098;2022-07-25T01:18:14;7.85;;;3.35;;
51128;SDS011;46230;47.522;19.098;2022-07-25T01:20:18;4.63;;;3.15;;
51128;SDS011;46230;47.522;19.098;2022-07-25T01:22:22;8.48;;;3.72;;
51128;SDS011;46230;47.522;19.098;2022-07-25T01:24:22;4.50;;;3.47;;
51128;SDS011;46230;47.522;19.098;2022-07-25T01:26:23;5.68;;;3.65;;
51128;SDS011;46230;47.522;19.098;2022-07-25T01:28:23;4.70;;;3.30;;
51128;SDS011;46230;47.522;19.098;2022-07-25T01:30:24;6.35;;;3.83;;
51128;SDS011;46230;47.522;19.098;2022-07-25T01:32:24;3.35;;;3.05;;
51128;SDS011;46230;47.522;19.098;2022-07-25T01:34:25;3.53;;;3.22;;
51128;SDS011;46230;47.522;19.098;2022-07-25T01:36:25;4.95;;;3.95;;
51128;SDS011;46230;47.522;19.098;2022-07-25T01:38:26;5.97;;;4.07;;
51128;SDS011;46230;47.522;19.098;2022-07-25T01:40:26;6.18;;;3.97;;
51128;SDS011;46230;47.522;19.098;2022-07-25T01:42:27;3.97;;;3.38;;
51128;SDS011;46230;47.522;19.098;2022-07-25T01:44:27;3.80;;;3.40;;
51128;SDS011;46230;47.522;19.098;2022-07-25T01:46:27;5.50;;;3.63;;
51128;SDS011;46230;47.522;19.098;2022-07-25T01:48:28;5.13;;;3.75;;
51128;SDS011;46230;47.522;19.098;2022-07-25T01:50:28;7.30;;;3.50;;
51128;SDS011;46230;47.522;19.098;2022-07-25T01:52:29;7.55;;;3.75;;
51128;SDS011;46230;47.522;19.098;2022-07-25T01:54:29;4.63;;;3.70;;
51128;SDS011;46230;47.522;19.098;2022-07-25T01:56:29;5.63;;;3.70;;
51128;SDS011;46230;47.522;19.098;2022-07-25T01:58:30;3.53;;;3.22;;
51128;SDS011;46230;47.522;19.098;2022-07-25T02:00:31;5.75;;;3.60;;
51128;SDS011;46230;47.522;19.098;2022-07-25T02:02:31;4.65;;;3.80;;
51128;SDS011;46230;47.522;19.098;2022-07-25T02:04:32;4.82;;;3.40;;
51128;SDS011;46230;47.522;19.098;2022-07-25T02:06:32;3.78;;;3.40;;
51128;SDS011;46230;47.522;19.098;2022-07-25T02:08:33;5.47;;;3.78;;
51128;SDS011;46230;47.522;19.098;2022-07-25T02:10:34;4.90;;;3.40;;
51128;SDS011;46230;47.522;19.098;2022-07-25T02:12:34;5.72;;;3.88;;
51128;SDS011;46230;47.522;19.098;2022-07-25T02:14:35;5.10;;;3.50;;
51128;SDS011;46230;47.522;19.098;2022-07-25T02:16:35;4.30;;;3.60;;
51128;SDS011;46230;47.522;19.098;2022-07-25T02:18:36;3.97;;;3.47;;
51128;SDS011;46230;47.522;19.098;2022-07-25T02:20:36;5.32;;;3.55;;
51128;SDS011;46230;47.522;19.098;2022-07-25T02:22:37;4.32;;;3.50;;
51128;SDS011;46230;47.522;19.098;2022-07-25T02:24:37;4.97;;;3.60;;
51128;SDS011;46230;47.522;19.098;2022-07-25T02:26:37;5.43;;;3.70;;
51128;SDS011;46230;47.522;19.098;2022-07-25T02:28:38;6.45;;;4.15;;
51128;SDS011;46230;47.522;19.098;2022-07-25T02:30:39;4.65;;;3.85;;
51128;SDS011;46230;47.522;19.098;2022-07-25T02:32:40;4.25;;;3.83;;
51128;SDS011;46230;47.522;19.098;2022-07-25T02:34:40;4.40;;;3.60;;
51128;SDS011;46230;47.522;19.098;2022-07-25T02:36:41;4.25;;;3.72;;
51128;SDS011;46230;47.522;19.098;2022-07-25T02:38:41;6.55;;;3.72;;
51128;SDS011;46230;47.522;19.098;2022-07-25T02:40:42;4.63;;;3.83;;
51128;SDS011;46230;47.522;19.098;2022-07-25T02:42:42;5.53;;;3.97;;
51128;SDS011;46230;47.522;19.098;2022-07-25T02:44:42;4.88;;;3.88;;
51128;SDS011;46230;47.522;19.098;2022-07-25T02:46:43;5.35;;;4.10;;
51128;SDS011;46230;47.522;19.098;2022-07-25T02:48:43;6.88;;;4.13;;
51128;SDS011;46230;47.522;19.098;2022-07-25T02:50:44;5.05;;;4.00;;
51128;SDS011;46230;47.522;19.098;2022-07-25T02:52:44;7.38;;;3.88;;
51128;SDS011;46230;47.522;19.098;2022-07-25T02:54:44;4.65;;;3.63;;
51128;SDS011;46230;47.522;19.098;2022-07-25T02:56:45;8.70;;;4.25;;
51128;SDS011;46230;47.522;19.098;2022-07-25T02:58:45;5.80;;;3.65;;
51128;SDS011;46230;47.522;19.098;2022-07-25T03:00:46;5.18;;;3.95;;
51128;SDS011;46230;47.522;19.098;2022-07-25T03:02:46;5.82;;;3.70;;
51128;SDS011;46230;47.522;19.098;2022-07-25T03:04:46;4.78;;;3.88;;
51128;SDS011;46230;47.522;19.098;2022-07-25T03:06:47;4.70;;;3.67;;
51128;SDS011;46230;47.522;19.098;2022-07-25T03:08:47;5.97;;;3.75;;
51128;SDS011;46230;47.522;19.098;2022-07-25T03:10:48;5.55;;;3.90;;
51128;SDS011;46230;47.522;19.098;2022-07-25T03:12:48;4.63;;;3.80;;
51128;SDS011;46230;47.522;19.098;2022-07-25T03:14:48;6.03;;;3.85;;
51128;SDS011;46230;47.522;19.098;2022-07-25T03:16:50;4.97;;;3.78;;
51128;SDS011;46230;47.522;19.098;2022-07-25T03:18:51;6.30;;;4.15;;
51128;SDS011;46230;47.522;19.098;2022-07-25T03:20:51;7.68;;;4.10;;
51128;SDS011;46230;47.522;19.098;2022-07-25T03:22:51;5.50;;;4.10;;
51128;SDS011;46230;47.522;19.098;2022-07-25T03:24:52;6.00;;;4.05;;
51128;SDS011;46230;47.522;19.098;2022-07-25T03:26:52;6.68;;;4.40;;
51128;SDS011;46230;47.522;19.098;2022-07-25T03:28:53;9.02;;;4.47;;
51128;SDS011;46230;47.522;19.098;2022-07-25T03:30:53;6.78;;;4.40;;
51128;SDS011;46230;47.522;19.098;2022-07-25T03:32:53;6.28;;;4.47;;
51128;SDS011;46230;47.522;19.098;2022-07-25T03:34:54;7.55;;;4.55;;
51128;SDS011;46230;47.522;19.098;2022-07-25T03:36:54;7.15;;;4.20;;
51128;SDS011;46230;47.522;19.098;2022-07-25T03:38:55;7.80;;;4.60;;
51128;SDS011;46230;47.522;19.098;2022-07-25T03:40:55;5.50;;;4.68;;
51128;SDS011;46230;47.522;19.098;2022-07-25T03:42:56;6.35;;;4.68;;
51128;SDS011;46230;47.522;19.098;2022-07-25T03:44:56;9.95;;;4.50;;
51128;SDS011;46230;47.522;19.098;2022-07-25T03:46:57;6.00;;;4.30;;
51128;SDS011;46230;47.522;19.098;2022-07-25T03:48:57;6.45;;;4.57;;
51128;SDS011;46230;47.522;19.098;2022-07-25T03:50:57;4.80;;;4.35;;
51128;SDS011;46230;47.522;19.098;2022-07-25T03:52:58;6.35;;;4.40;;
51128;SDS011;46230;47.522;19.098;2022-07-25T03:54:58;6.57;;;4.20;;
51128;SDS011;46230;47.522;19.098;2022-07-25T03:56:58;7.68;;;4.80;;
51128;SDS011;46230;47.522;19.098;2022-07-25T03:58:59;9.15;;;4.43;;
51128;SDS011;46230;47.522;19.098;2022-07-25T04:00:59;7.05;;;4.28;;
51128;SDS011;46230;47.522;19.098;2022-07-25T04:03:00;6.95;;;5.30;;
51128;SDS011;46230;47.522;19.098;2022-07-25T04:05:00;6.68;;;4.60;;
51128;SDS011;46230;47.522;19.098;2022-07-25T04:07:00;7.78;;;4.80;;
51128;SDS011;46230;47.522;19.098;2022-07-25T04:09:01;5.93;;;4.15;;
51128;SDS011;46230;47.522;19.098;2022-07-25T04:11:01;5.78;;;4.30;;
51128;SDS011;46230;47.522;19.098;2022-07-25T04:13:02;6.05;;;4.70;;
51128;SDS011;46230;47.522;19.098;2022-07-25T04:15:02;6.43;;;4.50;;
51128;SDS011;46230;47.522;19.098;2022-07-25T04:17:03;7.75;;;4.57;;
51128;SDS011;46230;47.522;19.098;2022-07-25T04:19:04;6.68;;;5.15;;
51128;SDS011;46230;47.522;19.098;2022-07-25T04:21:04;7.10;;;4.60;;
51128;SDS011;46230;47.522;19.098;2022-07-25T04:23:05;9.98;;;5.15;;
51128;SDS011;46230;47.522;19.098;2022-07-25T04:25:05;7.32;;;5.00;;
51128;SDS011;46230;47.522;19.098;2022-07-25T04:27:06;6.07;;;4.75;;
51128;SDS011;46230;47.522;19.098;2022-07-25T04:29:06;6.97;;;4.30;;
51128;SDS011;46230;47.522;19.098;2022-07-25T04:31:07;6.78;;;4.38;;
51128;SDS011;46230;47.522;19.098;2022-07-25T04:33:07;9.70;;;4.70;;
51128;SDS011;46230;47.522;19.098;2022-07-25T04:35:08;7.97;;;4.55;;
51128;SDS011;46230;47.522;19.098;2022-07-25T04:37:08;7.43;;;4.60;;
51128;SDS011;46230;47.522;19.098;2022-07-25T04:39:09;6.30;;;4.18;;
51128;SDS011;46230;47.522;19.098;2022-07-25T04:41:09;5.63;;;4.55;;
51128;SDS011;46230;47.522;19.098;2022-07-25T04:43:09;6.85;;;4.50;;
51128;SDS011;46230;47.522;19.098;2022-07-25T04:45:10;10.30;;;4.70;;
51128;SDS011;46230;47.522;19.098;2022-07-25T04:47:11;8.45;;;4.85;;
51128;SDS011;46230;47.522;19.098;2022-07-25T04:49:11;10.98;;;4.43;;
51128;SDS011;46230;47.522;19.098;2022-07-25T04:51:11;5.88;;;4.28;;
51128;SDS011;46230;47.522;19.098;2022-07-25T04:53:12;7.60;;;4.80;;
51128;SDS011;46230;47.522;19.098;2022-07-25T04:55:12;5.95;;;4.28;;
51128;SDS011;46230;47.522;19.098;2022-07-25T04:57:13;10.52;;;4.97;;
51128;SDS011;46230;47.522;19.098;2022-07-25T04:59:13;6.85;;;4.53;;
51128;SDS011;46230;47.522;19.098;2022-07-25T05:01:14;13.57;;;4.63;;
51128;SDS011;46230;47.522;19.098;2022-07-25T05:03:14;30.92;;;9.18;;
51128;SDS011;46230;47.522;19.098;2022-07-25T05:05:14;10.07;;;4.82;;
51128;SDS011;46230;47.522;19.098;2022-07-25T05:07:15;7.18;;;4.55;;
51128;SDS011;46230;47.522;19.098;2022-07-25T05:09:16;11.57;;;5.35;;
51128;SDS011;46230;47.522;19.098;2022-07-25T05:11:17;6.55;;;4.50;;
51128;SDS011;46230;47.522;19.098;2022-07-25T05:13:17;10.88;;;4.88;;
51128;SDS011;46230;47.522;19.098;2022-07-25T05:15:18;8.10;;;4.45;;
51128;SDS011;46230;47.522;19.098;2022-07-25T05:17:18;10.48;;;4.68;;
51128;SDS011;46230;47.522;19.098;2022-07-25T05:19:18;6.65;;;4.53;;
51128;SDS011;46230;47.522;19.098;2022-07-25T05:21:19;11.45;;;4.80;;
51128;SDS011;46230;47.522;19.098;2022-07-25T05:23:19;6.38;;;4.55;;
51128;SDS011;46230;47.522;19.098;2022-07-25T05:25:20;11.02;;;4.80;;
51128;SDS011;46230;47.522;19.098;2022-07-25T05:27:20;13.90;;;4.40;;
51128;SDS011;46230;47.522;19.098;2022-07-25T05:29:20;11.75;;;4.47;;
51128;SDS011;46230;47.522;19.098;2022-07-25T05:31:21;12.63;;;4.50;;
51128;SDS011;46230;47.522;19.098;2022-07-25T05:33:21;8.88;;;4.50;;
51128;SDS011;46230;47.522;19.098;2022-07-25T05:35:22;7.95;;;4.32;;
51128;SDS011;46230;47.522;19.098;2022-07-25T05:37:22;11.40;;;4.90;;
51128;SDS011;46230;47.522;19.098;2022-07-25T05:39:22;5.10;;;3.95;;
51128;SDS011;46230;47.522;19.098;2022-07-25T05:41:23;11.65;;;5.10;;
51128;SDS011;46230;47.522;19.098;2022-07-25T05:43:23;10.45;;;4.47;;
51128;SDS011;46230;47.522;19.098;2022-07-25T05:45:24;5.70;;;3.80;;
51128;SDS011;46230;47.522;19.098;2022-07-25T05:47:24;7.60;;;4.10;;
51128;SDS011;46230;47.522;19.098;2022-07-25T05:49:25;7.32;;;4.00;;
51128;SDS011;46230;47.522;19.098;2022-07-25T05:51:25;8.30;;;4.20;;
51128;SDS011;46230;47.522;19.098;2022-07-25T05:53:26;7.60;;;4.32;;
51128;SDS011;46230;47.522;19.098;2022-07-25T05:55:26;7.00;;;4.13;;
51128;SDS011;46230;47.522;19.098;2022-07-25T05:57:27;6.53;;;4.10;;
51128;SDS011;46230;47.522;19.098;2022-07-25T05:59:27;8.23;;;3.85;;
51128;SDS011;46230;47.522;19.098;2022-07-25T06:01:27;4.18;;;3.63;;
51128;SDS011;46230;47.522;19.098;2022-07-25T06:03:28;6.57;;;4.25;;
51128;SDS011;46230;47.522;19.098;2022-07-25T06:05:28;10.73;;;3.72;;
51128;SDS011;46230;47.522;19.098;2022-07-25T06:07:29;6.88;;;3.97;;
51128;SDS011;46230;47.522;19.098;2022-07-25T06:09:29;6.35;;;3.88;;
51128;SDS011;46230;47.522;19.098;2022-07-25T06:11:30;4.60;;;3.70;;
51128;SDS011;46230;47.522;19.098;2022-07-25T06:13:30;5.38;;;3.90;;
51128;SDS011;46230;47.522;19.098;2022-07-25T06:15:31;9.90;;;4.30;;
51128;SDS011;46230;47.522;19.098;2022-07-25T06:17:32;6.72;;;3.97;;
51128;SDS011;46230;47.522;19.098;2022-07-25T06:19:32;5.60;;;3.70;;
51128;SDS011;46230;47.522;19.098;2022-07-25T06:21:33;8.20;;;3.63;;
51128;SDS011;46230;47.522;19.098;2022-07-25T06:23:33;8.05;;;3.95;;
51128;SDS011;46230;47.522;19.098;2022-07-25T06:25:33;9.15;;;3.70;;
51128;SDS011;46230;47.522;19.098;2022-07-25T06:27:35;10.50;;;3.90;;
51128;SDS011;46230;47.522;19.098;2022-07-25T06:29:36;9.43;;;3.83;;
51128;SDS011;46230;47.522;19.098;2022-07-25T06:31:37;5.82;;;3.63;;
51128;SDS011;46230;47.522;19.098;2022-07-25T06:33:37;7.60;;;3.80;;
51128;SDS011;46230;47.522;19.098;2022-07-25T06:35:38;7.55;;;3.97;;
51128;SDS011;46230;47.522;19.098;2022-07-25T06:37:38;5.50;;;3.67;;
51128;SDS011;46230;47.522;19.098;2022-07-25T06:39:39;3.75;;;3.10;;
51128;SDS011;46230;47.522;19.098;2022-07-25T06:41:39;6.07;;;3.67;;
51128;SDS011;46230;47.522;19.098;2022-07-25T06:43:39;6.22;;;3.17;;
51128;SDS011;46230;47.522;19.098;2022-07-25T06:45:40;6.35;;;3.47;;
51128;SDS011;46230;47.522;19.098;2022-07-25T06:47:41;5.53;;;3.40;;
51128;SDS011;46230;47.522;19.098;2022-07-25T06:49:41;3.85;;;3.35;;
51128;SDS011;46230;47.522;19.098;2022-07-25T06:51:42;6.22;;;3.22;;
51128;SDS011;46230;47.522;19.098;2022-07-25T06:53:42;4.82;;;3.50;;
51128;SDS011;46230;47.522;19.098;2022-07-25T06:55:43;4.85;;;3.38;;
51128;SDS011;46230;47.522;19.098;2022-07-25T06:57:43;4.35;;;3.50;;
51128;SDS011;46230;47.522;19.098;2022-07-25T06:59:44;6.43;;;3.80;;
51128;SDS011;46230;47.522;19.098;2022-07-25T07:01:44;5.85;;;3.42;;
51128;SDS011;46230;47.522;19.098;2022-07-25T07:03:45;4.93;;;3.70;;
51128;SDS011;46230;47.522;19.098;2022-07-25T07:05:45;9.88;;;3.60;;
51128;SDS011;46230;47.522;19.098;2022-07-25T07:07:46;9.52;;;3.90;;
51128;SDS011;46230;47.522;19.098;2022-07-25T07:09:47;9.65;;;3.75;;
51128;SDS011;46230;47.522;19.098;2022-07-25T07:11:47;6.18;;;3.45;;
51128;SDS011;46230;47.522;19.098;2022-07-25T07:13:47;5.85;;;3.90;;
51128;SDS011;46230;47.522;19.098;2022-07-25T07:15:48;5.43;;;3.45;;
51128;SDS011;46230;47.522;19.098;2022-07-25T07:17:49;7.80;;;3.75;;
51128;SDS011;46230;47.522;19.098;2022-07-25T07:19:49;6.13;;;3.40;;
51128;SDS011;46230;47.522;19.098;2022-07-25T07:21:50;5.57;;;3.38;;
51128;SDS011;46230;47.522;19.098;2022-07-25T07:23:50;3.53;;;3.05;;
51128;SDS011;46230;47.522;19.098;2022-07-25T07:25:50;4.25;;;3.28;;
51128;SDS011;46230;47.522;19.098;2022-07-25T07:27:51;6.38;;;3.40;;
51128;SDS011;46230;47.522;19.098;2022-07-25T07:29:51;6.53;;;3.08;;
51128;SDS011;46230;47.522;19.098;2022-07-25T07:31:52;18.77;;;4.10;;
51128;SDS011;46230;47.522;19.098;2022-07-25T07:33:52;4.50;;;3.25;;
51128;SDS011;46230;47.522;19.098;2022-07-25T07:35:52;5.88;;;2.92;;
51128;SDS011;46230;47.522;19.098;2022-07-25T07:37:53;3.38;;;3.05;;
51128;SDS011;46230;47.522;19.098;2022-07-25T07:39:54;4.18;;;3.00;;
51128;SDS011;46230;47.522;19.098;2022-07-25T07:41:54;4.22;;;3.20;;
51128;SDS011;46230;47.522;19.098;2022-07-25T07:43:54;3.75;;;3.15;;
51128;SDS011;46230;47.522;19.098;2022-07-25T07:45:55;7.93;;;3.53;;
51128;SDS011;46230;47.522;19.098;2022-07-25T07:47:55;4.82;;;3.10;;
51128;SDS011;46230;47.522;19.098;2022-07-25T07:49:56;6.00;;;3.05;;
51128;SDS011;46230;47.522;19.098;2022-07-25T07:51:56;5.45;;;3.22;;
51128;SDS011;46230;47.522;19.098;2022-07-25T07:53:56;5.20;;;3.17;;
51128;SDS011;46230;47.522;19.098;2022-07-25T07:55:57;4.72;;;3.28;;
51128;SDS011;46230;47.522;19.098;2022-07-25T07:57:57;7.50;;;3.42;;
51128;SDS011;46230;47.522;19.098;2022-07-25T07:59:58;7.38;;;3.30;;
51128;SDS011;46230;47.522;19.098;2022-07-25T08:01:58;5.38;;;3.53;;
51128;SDS011;46230;47.522;19.098;2022-07-25T08:03:58;5.00;;;3.33;;
51128;SDS011;46230;47.522;19.098;2022-07-25T08:05:59;3.90;;;3.13;;
51128;SDS011;46230;47.522;19.098;2022-07-25T08:08:00;6.38;;;3.38;;
51128;SDS011;46230;47.522;19.098;2022-07-25T08:10:00;7.28;;;3.03;;
51128;SDS011;46230;47.522;19.098;2022-07-25T08:12:01;6.43;;;3.33;;
51128;SDS011;46230;47.522;19.098;2022-07-25T08:14:01;3.30;;;2.80;;
51128;SDS011;46230;47.522;19.098;2022-07-25T08:16:02;15.00;;;2.95;;
51128;SDS011;46230;47.522;19.098;2022-07-25T08:18:03;4.95;;;2.97;;
51128;SDS011;46230;47.522;19.098;2022-07-25T08:20:03;3.20;;;2.90;;
51128;SDS011;46230;47.522;19.098;2022-07-25T08:22:04;6.15;;;3.00;;
51128;SDS011;46230;47.522;19.098;2022-07-25T08:24:05;6.82;;;3.03;;
51128;SDS011;46230;47.522;19.098;2022-07-25T08:26:05;5.93;;;3.20;;
51128;SDS011;46230;47.522;19.098;2022-07-25T08:28:06;4.07;;;3.17;;
51128;SDS011;46230;47.522;19.098;2022-07-25T08:30:07;5.32;;;3.40;;
51128;SDS011;46230;47.522;19.098;2022-07-25T08:32:08;5.07;;;3.40;;
51128;SDS011;46230;47.522;19.098;2022-07-25T08:34:08;5.78;;;3.38;;
51128;SDS011;46230;47.522;19.098;2022-07-25T08:36:08;7.35;;;3.53;;
51128;SDS011;46230;47.522;19.098;2022-07-25T08:38:09;5.75;;;3.53;;
51128;SDS011;46230;47.522;19.098;2022-07-25T08:40:10;10.82;;;3.65;;
51128;SDS011;46230;47.522;19.098;2022-07-25T08:42:12;11.00;;;3.33;;
51128;SDS011;46230;47.522;19.098;2022-07-25T08:44:12;11.63;;;3.58;;
51128;SDS011;46230;47.522;19.098;2022-07-25T08:46:13;7.47;;;3.65;;
51128;SDS011;46230;47.522;19.098;2022-07-25T08:48:15;8.07;;;3.95;;
51128;SDS011;46230;47.522;19.098;2022-07-25T08:50:20;8.38;;;3.50;;
51128;SDS011;46230;47.522;19.098;2022-07-25T08:52:22;4.72;;;3.17;;
51128;SDS011;46230;47.522;19.098;2022-07-25T08:54:22;6.57;;;3.40;;
51128;SDS011;46230;47.522;19.098;2022-07-25T08:56:23;4.05;;;3.65;;
51128;SDS011;46230;47.522;19.098;2022-07-25T08:58:23;5.45;;;4.00;;
51128;SDS011;46230;47.522;19.098;2022-07-25T09:00:25;5.95;;;3.50;;
51128;SDS011;46230;47.522;19.098;2022-07-25T09:04:27;4.95;;;3.83;;
51128;SDS011;46230;47.522;19.098;2022-07-25T09:06:28;3.90;;;3.53;;
51128;SDS011;46230;47.522;19.098;2022-07-25T09:08:29;10.27;;;3.85;;
51128;SDS011;46230;47.522;19.098;2022-07-25T09:10:29;5.18;;;3.70;;
51128;SDS011;46230;47.522;19.098;2022-07-25T09:12:30;8.90;;;3.85;;
51128;SDS011;46230;47.522;19.098;2022-07-25T09:14:39;5.95;;;3.70;;
51128;SDS011;46230;47.522;19.098;2022-07-25T09:16:42;3.97;;;3.58;;
51128;SDS011;46230;47.522;19.098;2022-07-25T09:18:43;5.68;;;3.70;;
51128;SDS011;46230;47.522;19.098;2022-07-25T09:20:44;4.88;;;3.30;;
51128;SDS011;46230;47.522;19.098;2022-07-25T09:22:48;3.85;;;3.25;;
51128;SDS011;46230;47.522;19.098;2022-07-25T09:24:49;8.13;;;3.60;;
51128;SDS011;46230;47.522;19.098;2022-07-25T09:26:53;3.90;;;3.40;;
51128;SDS011;46230;47.522;19.098;2022-07-25T09:28:54;7.15;;;3.42;;
51128;SDS011;46230;47.522;19.098;2022-07-25T09:30:56;5.18;;;3.60;;
51128;SDS011;46230;47.522;19.098;2022-07-25T09:32:59;6.20;;;3.50;;
51128;SDS011;46230;47.522;19.098;2022-07-25T09:35:00;5.32;;;3.83;;
51128;SDS011;46230;47.522;19.098;2022-07-25T09:37:02;3.85;;;3.45;;
51128;SDS011;46230;47.522;19.098;2022-07-25T09:41:04;4.93;;;3.20;;
51128;SDS011;46230;47.522;19.098;2022-07-25T09:43:04;5.95;;;3.35;;
51128;SDS011;46230;47.522;19.098;2022-07-25T09:45:07;8.52;;;3.53;;
51128;SDS011;46230;47.522;19.098;2022-07-25T09:47:09;6.47;;;3.58;;
51128;SDS011;46230;47.522;19.098;2022-07-25T09:49:10;5.03;;;3.40;;
51128;SDS011;46230;47.522;19.098;2022-07-25T09:51:10;4.97;;;3.40;;
51128;SDS011;46230;47.522;19.098;2022-07-25T09:53:11;6.28;;;3.70;;
51128;SDS011;46230;47.522;19.098;2022-07-25T09:55:11;4.50;;;3.15;;
51128;SDS011;46230;47.522;19.098;2022-07-25T09:57:12;4.88;;;3.55;;
51128;SDS011;46230;47.522;19.098;2022-07-25T09:59:12;5.05;;;3.38;;
51128;SDS011;46230;47.522;19.098;2022-07-25T10:01:15;3.63;;;3.28;;
51128;SDS011;46230;47.522;19.098;2022-07-25T10:07:42;4.43;;;3.30;;
51128;SDS011;46230;47.522;19.098;2022-07-25T10:09:46;5.18;;;3.50;;
51128;SDS011;46230;47.522;19.098;2022-07-25T10:12:04;4.47;;;3.40;;
51128;SDS011;46230;47.522;19.098;2022-07-25T10:14:09;7.85;;;3.08;;
51128;SDS011;46230;47.522;19.098;2022-07-25T10:16:17;4.18;;;3.30;;
51128;SDS011;46230;47.522;19.098;2022-07-25T10:18:22;4.32;;;3.25;;
51128;SDS011;46230;47.522;19.098;2022-07-25T10:20:26;7.47;;;3.47;;
51128;SDS011;46230;47.522;19.098;2022-07-25T10:22:40;4.13;;;3.42;;
51128;SDS011;46230;47.522;19.098;2022-07-25T10:24:45;8.18;;;3.05;;
51128;SDS011;46230;47.522;19.098;2022-07-25T10:26:52;4.43;;;3.33;;
51128;SDS011;46230;47.522;19.098;2022-07-25T10:28:53;4.03;;;3.30;;
51128;SDS011;46230;47.522;19.098;2022-07-25T10:30:56;5.43;;;3.30;;
51128;SDS011;46230;47.522;19.098;2022-07-25T10:33:01;6.25;;;3.50;;
51128;SDS011;46230;47.522;19.098;2022-07-25T10:35:15;13.25;;;3.47;;
51128;SDS011;46230;47.522;19.098;2022-07-25T10:39:17;4.30;;;3.47;;
51128;SDS011;46230;47.522;19.098;2022-07-25T10:41:22;10.02;;;2.85;;
51128;SDS011;46230;47.522;19.098;2022-07-25T10:43:23;6.63;;;3.42;;
51128;SDS011;46230;47.522;19.098;2022-07-25T10:45:25;6.32;;;3.28;;
51128;SDS011;46230;47.522;19.098;2022-07-25T10:47:26;4.88;;;2.92;;
51128;SDS011;46230;47.522;19.098;2022-07-25T10:49:27;6.88;;;3.20;;
51128;SDS011;46230;47.522;19.098;2022-07-25T10:51:35;3.95;;;2.90;;
51128;SDS011;46230;47.522;19.098;2022-07-25T10:53:37;5.47;;;3.15;;
51128;SDS011;46230;47.522;19.098;2022-07-25T10:55:41;5.40;;;2.72;;
51128;SDS011;46230;47.522;19.098;2022-07-25T10:57:41;7.38;;;2.70;;
51128;SDS011;46230;47.522;19.098;2022-07-25T10:59:42;6.85;;;3.08;;
51128;SDS011;46230;47.522;19.098;2022-07-25T11:01:42;4.07;;;2.92;;
51128;SDS011;46230;47.522;19.098;2022-07-25T11:03:43;7.25;;;2.97;;
51128;SDS011;46230;47.522;19.098;2022-07-25T11:05:44;3.17;;;2.88;;
51128;SDS011;46230;47.522;19.098;2022-07-25T11:07:49;5.80;;;2.90;;
51128;SDS011;46230;47.522;19.098;2022-07-25T11:09:59;4.72;;;2.72;;
51128;SDS011;46230;47.522;19.098;2022-07-25T11:12:01;4.53;;;3.00;;
51128;SDS011;46230;47.522;19.098;2022-07-25T11:14:02;4.38;;;2.70;;
51128;SDS011;46230;47.522;19.098;2022-07-25T11:18:04;4.43;;;2.67;;
51128;SDS011;46230;47.522;19.098;2022-07-25T11:20:06;8.70;;;2.72;;
51128;SDS011;46230;47.522;19.098;2022-07-25T11:22:08;3.75;;;2.78;;
51128;SDS011;46230;47.522;19.098;2022-07-25T11:24:08;4.60;;;3.30;;
51128;SDS011;46230;47.522;19.098;2022-07-25T11:26:10;4.18;;;2.97;;
51128;SDS011;46230;47.522;19.098;2022-07-25T11:28:11;4.55;;;2.85;;
51128;SDS011;46230;47.522;19.098;2022-07-25T11:30:12;3.55;;;2.97;;
51128;SDS011;46230;47.522;19.098;2022-07-25T11:32:14;3.83;;;3.10;;
51128;SDS011;46230;47.522;19.098;2022-07-25T11:34:14;3.47;;;2.83;;
51128;SDS011;46230;47.522;19.098;2022-07-25T11:36:15;3.90;;;3.30;;
51128;SDS011;46230;47.522;19.098;2022-07-25T11:38:16;7.97;;;2.92;;
51128;SDS011;46230;47.522;19.098;2022-07-25T11:40:17;4.65;;;3.13;;
51128;SDS011;46230;47.522;19.098;2022-07-25T11:42:18;7.10;;;3.00;;
51128;SDS011;46230;47.522;19.098;2022-07-25T11:44:28;8.82;;;3.20;;
51128;SDS011;46230;47.522;19.098;2022-07-25T11:46:39;4.97;;;2.90;;
51128;SDS011;46230;47.522;19.098;2022-07-25T11:48:40;5.45;;;3.47;;
51128;SDS011;46230;47.522;19.098;2022-07-25T11:50:41;5.50;;;3.05;;
51128;SDS011;46230;47.522;19.098;2022-07-25T11:52:43;5.85;;;2.40;;
51128;SDS011;46230;47.522;19.098;2022-07-25T11:54:53;4.65;;;2.97;;
51128;SDS011;46230;47.522;19.098;2022-07-25T11:56:55;4.40;;;2.85;;
51128;SDS011;46230;47.522;19.098;2022-07-25T11:58:56;7.97;;;3.38;;
51128;SDS011;46230;47.522;19.098;2022-07-25T12:03:11;7.40;;;2.65;;
51128;SDS011;46230;47.522;19.098;2022-07-25T12:05:16;5.28;;;2.70;;
51128;SDS011;46230;47.522;19.098;2022-07-25T12:07:18;3.05;;;2.60;;
51128;SDS011;46230;47.522;19.098;2022-07-25T12:09:19;3.65;;;2.08;;
51128;SDS011;46230;47.522;19.098;2022-07-25T12:11:21;4.73;;;2.47;;
51128;SDS011;46230;47.522;19.098;2022-07-25T12:15:24;3.33;;;2.40;;